sensor_id;sensor_type;location;lat;lon;timestamp;temperature;humidity
78647;DHT22;67961;43.460;3.762;2023-04-06T00:01:40;10.00;46.40
78647;DHT22;67961;43.460;3.762;2023-04-06T00:04:06;10.00;46.40
78647;DHT22;67961;43.460;3.762;2023-04-06T00:06:33;10.00;46.70
78647;DHT22;67961;43.460;3.762;2023-04-06T00:08:59;10.00;47.00
78647;DHT22;67961;43.460;3.762;2023-04-06T00:11:25;9.90;47.10
78647;DHT22;67961;43.460;3.762;2023-04-06T00:13:51;9.80;47.30
78647;DHT22;67961;43.460;3.762;2023-04-06T00:16:17;9.70;47.30
78647;DHT22;67961;43.460;3.762;2023-04-06T00:18:42;9.60;47.50
78647;DHT22;67961;43.460;3.762;2023-04-06T00:21:11;9.60;47.70
78647;DHT22;67961;43.460;3.762;2023-04-06T00:23:38;9.60;47.80
78647;DHT22;67961;43.460;3.762;2023-04-06T00:26:04;9.50;47.90
78647;DHT22;67961;43.460;3.762;2023-04-06T00:28:29;9.40;48.00
78647;DHT22;67961;43.460;3.762;2023-04-06T00:30:55;9.40;48.20
78647;DHT22;67961;43.460;3.762;2023-04-06T00:33:22;9.30;48.00
78647;DHT22;67961;43.460;3.762;2023-04-06T00:35:48;9.20;48.20
78647;DHT22;67961;43.460;3.762;2023-04-06T00:38:15;9.20;48.10
78647;DHT22;67961;43.460;3.762;2023-04-06T00:40:41;9.00;48.40
78647;DHT22;67961;43.460;3.762;2023-04-06T00:43:07;9.00;48.20
78647;DHT22;67961;43.460;3.762;2023-04-06T00:45:34;9.10;47.00
78647;DHT22;67961;43.460;3.762;2023-04-06T00:48:00;9.20;47.50
78647;DHT22;67961;43.460;3.762;2023-04-06T00:50:27;9.30;47.00
78647;DHT22;67961;43.460;3.762;2023-04-06T00:52:54;9.30;46.10
78647;DHT22;67961;43.460;3.762;2023-04-06T00:55:20;9.40;45.80
78647;DHT22;67961;43.460;3.762;2023-04-06T00:57:45;9.40;45.50
78647;DHT22;67961;43.460;3.762;2023-04-06T01:00:11;9.50;45.80
78647;DHT22;67961;43.460;3.762;2023-04-06T01:02:38;9.50;45.80
78647;DHT22;67961;43.460;3.762;2023-04-06T01:05:04;9.50;45.80
78647;DHT22;67961;43.460;3.762;2023-04-06T01:07:30;9.50;45.20
78647;DHT22;67961;43.460;3.762;2023-04-06T01:09:56;9.50;45.70
78647;DHT22;67961;43.460;3.762;2023-04-06T01:12:22;9.50;45.80
78647;DHT22;67961;43.460;3.762;2023-04-06T01:14:47;9.60;45.30
78647;DHT22;67961;43.460;3.762;2023-04-06T01:17:13;9.60;45.40
78647;DHT22;67961;43.460;3.762;2023-04-06T01:19:39;9.60;44.90
78647;DHT22;67961;43.460;3.762;2023-04-06T01:22:06;9.70;44.60
78647;DHT22;67961;43.460;3.762;2023-04-06T01:24:32;9.70;44.40
78647;DHT22;67961;43.460;3.762;2023-04-06T01:26:58;9.70;44.90
78647;DHT22;67961;43.460;3.762;2023-04-06T01:29:24;9.70;45.10
78647;DHT22;67961;43.460;3.762;2023-04-06T01:31:49;9.70;45.10
78647;DHT22;67961;43.460;3.762;2023-04-06T01:34:15;9.70;45.50
78647;DHT22;67961;43.460;3.762;2023-04-06T01:36:41;9.80;45.00
78647;DHT22;67961;43.460;3.762;2023-04-06T01:39:07;9.80;45.00
78647;DHT22;67961;43.460;3.762;2023-04-06T01:41:33;9.90;45.40
78647;DHT22;67961;43.460;3.762;2023-04-06T01:43:59;9.90;45.20
78647;DHT22;67961;43.460;3.762;2023-04-06T01:46:24;9.80;45.10
78647;DHT22;67961;43.460;3.762;2023-04-06T01:48:50;9.80;44.90
78647;DHT22;67961;43.460;3.762;2023-04-06T01:51:16;9.80;44.70
78647;DHT22;67961;43.460;3.762;2023-04-06T01:53:42;9.90;44.30
78647;DHT22;67961;43.460;3.762;2023-04-06T01:56:07;9.90;43.90
78647;DHT22;67961;43.460;3.762;2023-04-06T01:58:33;9.80;44.00
78647;DHT22;67961;43.460;3.762;2023-04-06T02:00:59;9.80;43.70
78647;DHT22;67961;43.460;3.762;2023-04-06T02:03:25;9.80;43.80
78647;DHT22;67961;43.460;3.762;2023-04-06T02:05:50;9.80;44.30
78647;DHT22;67961;43.460;3.762;2023-04-06T02:08:16;9.80;44.30
78647;DHT22;67961;43.460;3.762;2023-04-06T02:10:41;9.70;44.60
78647;DHT22;67961;43.460;3.762;2023-04-06T02:13:07;9.60;44.90
78647;DHT22;67961;43.460;3.762;2023-04-06T02:15:33;9.60;45.40
78647;DHT22;67961;43.460;3.762;2023-04-06T02:17:59;9.60;45.30
78647;DHT22;67961;43.460;3.762;2023-04-06T02:20:25;9.50;45.40
78647;DHT22;67961;43.460;3.762;2023-04-06T02:22:51;9.40;45.70
78647;DHT22;67961;43.460;3.762;2023-04-06T02:25:16;9.50;45.50
78647;DHT22;67961;43.460;3.762;2023-04-06T02:27:42;9.50;45.50
78647;DHT22;67961;43.460;3.762;2023-04-06T02:30:08;9.40;45.60
78647;DHT22;67961;43.460;3.762;2023-04-06T02:32:34;9.50;45.20
78647;DHT22;67961;43.460;3.762;2023-04-06T02:35:00;9.70;43.50
78647;DHT22;67961;43.460;3.762;2023-04-06T02:37:25;9.90;43.20
78647;DHT22;67961;43.460;3.762;2023-04-06T02:39:51;10.00;43.20
78647;DHT22;67961;43.460;3.762;2023-04-06T02:42:17;10.10;42.30
78647;DHT22;67961;43.460;3.762;2023-04-06T02:44:43;10.10;43.00
78647;DHT22;67961;43.460;3.762;2023-04-06T02:47:09;10.10;42.80
78647;DHT22;67961;43.460;3.762;2023-04-06T02:49:35;10.10;43.10
78647;DHT22;67961;43.460;3.762;2023-04-06T02:52:02;10.10;42.80
78647;DHT22;67961;43.460;3.762;2023-04-06T02:54:27;10.10;43.00
78647;DHT22;67961;43.460;3.762;2023-04-06T02:56:53;10.10;42.80
78647;DHT22;67961;43.460;3.762;2023-04-06T02:59:19;10.10;42.80
78647;DHT22;67961;43.460;3.762;2023-04-06T03:01:45;10.10;42.60
78647;DHT22;67961;43.460;3.762;2023-04-06T03:04:10;10.10;42.80
78647;DHT22;67961;43.460;3.762;2023-04-06T03:06:36;10.00;43.10
78647;DHT22;67961;43.460;3.762;2023-04-06T03:09:02;10.00;43.30
78647;DHT22;67961;43.460;3.762;2023-04-06T03:11:28;9.90;43.30
78647;DHT22;67961;43.460;3.762;2023-04-06T03:13:54;9.80;43.40
78647;DHT22;67961;43.460;3.762;2023-04-06T03:16:20;9.80;43.30
78647;DHT22;67961;43.460;3.762;2023-04-06T03:18:45;9.80;43.50
78647;DHT22;67961;43.460;3.762;2023-04-06T03:21:13;9.70;43.60
78647;DHT22;67961;43.460;3.762;2023-04-06T03:23:40;9.80;42.00
78647;DHT22;67961;43.460;3.762;2023-04-06T03:26:06;10.00;41.80
78647;DHT22;67961;43.460;3.762;2023-04-06T03:28:31;10.00;42.20
78647;DHT22;67961;43.460;3.762;2023-04-06T03:30:57;10.00;42.00
78647;DHT22;67961;43.460;3.762;2023-04-06T03:33:23;10.10;41.50
78647;DHT22;67961;43.460;3.762;2023-04-06T03:35:49;10.10;41.50
78647;DHT22;67961;43.460;3.762;2023-04-06T03:38:14;10.00;41.60
78647;DHT22;67961;43.460;3.762;2023-04-06T03:40:40;10.00;41.50
78647;DHT22;67961;43.460;3.762;2023-04-06T03:43:06;10.00;41.80
78647;DHT22;67961;43.460;3.762;2023-04-06T03:45:31;10.00;42.00
78647;DHT22;67961;43.460;3.762;2023-04-06T03:47:57;10.00;42.20
78647;DHT22;67961;43.460;3.762;2023-04-06T03:50:23;10.00;42.10
78647;DHT22;67961;43.460;3.762;2023-04-06T03:52:48;10.00;42.10
78647;DHT22;67961;43.460;3.762;2023-04-06T03:55:14;10.00;42.20
78647;DHT22;67961;43.460;3.762;2023-04-06T03:57:40;10.00;42.50
78647;DHT22;67961;43.460;3.762;2023-04-06T04:00:06;10.00;42.10
78647;DHT22;67961;43.460;3.762;2023-04-06T04:02:32;10.00;42.10
78647;DHT22;67961;43.460;3.762;2023-04-06T04:04:57;10.00;42.60
78647;DHT22;67961;43.460;3.762;2023-04-06T04:07:23;10.00;42.10
78647;DHT22;67961;43.460;3.762;2023-04-06T04:09:49;10.00;42.10
78647;DHT22;67961;43.460;3.762;2023-04-06T04:12:14;10.00;42.20
78647;DHT22;67961;43.460;3.762;2023-04-06T04:14:42;10.00;42.30
78647;DHT22;67961;43.460;3.762;2023-04-06T04:17:08;10.00;42.20
78647;DHT22;67961;43.460;3.762;2023-04-06T04:19:33;10.00;42.00
78647;DHT22;67961;43.460;3.762;2023-04-06T04:21:59;10.00;42.00
78647;DHT22;67961;43.460;3.762;2023-04-06T04:24:25;10.10;42.40
78647;DHT22;67961;43.460;3.762;2023-04-06T04:26:51;10.10;41.40
78647;DHT22;67961;43.460;3.762;2023-04-06T04:29:17;10.10;42.00
78647;DHT22;67961;43.460;3.762;2023-04-06T04:31:46;10.10;41.40
78647;DHT22;67961;43.460;3.762;2023-04-06T04:34:12;10.10;41.50
78647;DHT22;67961;43.460;3.762;2023-04-06T04:36:37;10.20;41.40
78647;DHT22;67961;43.460;3.762;2023-04-06T04:39:03;10.20;41.40
78647;DHT22;67961;43.460;3.762;2023-04-06T04:41:29;10.20;40.70
78647;DHT22;67961;43.460;3.762;2023-04-06T04:43:55;10.20;40.70
78647;DHT22;67961;43.460;3.762;2023-04-06T04:46:20;10.20;40.90
78647;DHT22;67961;43.460;3.762;2023-04-06T04:48:46;10.20;41.00
78647;DHT22;67961;43.460;3.762;2023-04-06T04:51:12;10.20;41.30
78647;DHT22;67961;43.460;3.762;2023-04-06T04:53:37;10.20;41.20
78647;DHT22;67961;43.460;3.762;2023-04-06T04:56:03;10.10;41.70
78647;DHT22;67961;43.460;3.762;2023-04-06T04:58:29;10.10;40.90
78647;DHT22;67961;43.460;3.762;2023-04-06T05:00:55;10.20;41.20
78647;DHT22;67961;43.460;3.762;2023-04-06T05:03:23;10.20;41.60
78647;DHT22;67961;43.460;3.762;2023-04-06T05:05:49;10.10;41.50
78647;DHT22;67961;43.460;3.762;2023-04-06T05:08:15;10.10;41.10
78647;DHT22;67961;43.460;3.762;2023-04-06T05:10:41;10.20;40.40
78647;DHT22;67961;43.460;3.762;2023-04-06T05:13:07;10.20;40.30
78647;DHT22;67961;43.460;3.762;2023-04-06T05:15:33;10.20;40.70
78647;DHT22;67961;43.460;3.762;2023-04-06T05:18:04;10.20;40.80
78647;DHT22;67961;43.460;3.762;2023-04-06T05:20:29;10.20;41.10
78647;DHT22;67961;43.460;3.762;2023-04-06T05:22:55;10.20;42.10
78647;DHT22;67961;43.460;3.762;2023-04-06T05:25:21;10.20;41.40
78647;DHT22;67961;43.460;3.762;2023-04-06T05:27:46;10.20;42.40
78647;DHT22;67961;43.460;3.762;2023-04-06T05:30:12;10.20;41.60
78647;DHT22;67961;43.460;3.762;2023-04-06T05:32:38;10.20;41.90
78647;DHT22;67961;43.460;3.762;2023-04-06T05:35:04;10.30;41.90
78647;DHT22;67961;43.460;3.762;2023-04-06T05:37:30;10.30;42.40
78647;DHT22;67961;43.460;3.762;2023-04-06T05:39:55;10.20;42.60
78647;DHT22;67961;43.460;3.762;2023-04-06T05:42:22;10.20;42.90
78647;DHT22;67961;43.460;3.762;2023-04-06T05:44:48;10.20;43.00
78647;DHT22;67961;43.460;3.762;2023-04-06T05:47:13;10.10;43.20
78647;DHT22;67961;43.460;3.762;2023-04-06T05:49:39;10.20;43.30
78647;DHT22;67961;43.460;3.762;2023-04-06T05:52:06;10.20;43.10
78647;DHT22;67961;43.460;3.762;2023-04-06T05:54:32;10.20;43.80
78647;DHT22;67961;43.460;3.762;2023-04-06T05:56:58;10.20;44.10
78647;DHT22;67961;43.460;3.762;2023-04-06T05:59:23;10.20;44.00
78647;DHT22;67961;43.460;3.762;2023-04-06T06:01:49;10.30;44.10
78647;DHT22;67961;43.460;3.762;2023-04-06T06:04:15;10.40;45.00
78647;DHT22;67961;43.460;3.762;2023-04-06T06:06:41;10.50;44.50
78647;DHT22;67961;43.460;3.762;2023-04-06T06:09:06;10.60;44.10
78647;DHT22;67961;43.460;3.762;2023-04-06T06:11:32;10.70;43.80
78647;DHT22;67961;43.460;3.762;2023-04-06T06:13:58;10.80;44.60
78647;DHT22;67961;43.460;3.762;2023-04-06T06:16:24;10.90;44.50
78647;DHT22;67961;43.460;3.762;2023-04-06T06:18:49;10.90;44.70
78647;DHT22;67961;43.460;3.762;2023-04-06T06:21:15;11.00;45.00
78647;DHT22;67961;43.460;3.762;2023-04-06T06:23:42;11.10;43.60
78647;DHT22;67961;43.460;3.762;2023-04-06T06:26:08;11.30;43.30
78647;DHT22;67961;43.460;3.762;2023-04-06T06:28:34;11.50;43.00
78647;DHT22;67961;43.460;3.762;2023-04-06T06:31:00;11.70;43.00
78647;DHT22;67961;43.460;3.762;2023-04-06T06:33:26;11.90;43.70
78647;DHT22;67961;43.460;3.762;2023-04-06T06:35:52;11.90;42.20
78647;DHT22;67961;43.460;3.762;2023-04-06T06:38:18;12.10;41.30
78647;DHT22;67961;43.460;3.762;2023-04-06T06:40:45;12.30;40.30
78647;DHT22;67961;43.460;3.762;2023-04-06T06:43:11;12.50;41.60
78647;DHT22;67961;43.460;3.762;2023-04-06T06:45:37;12.60;41.50
78647;DHT22;67961;43.460;3.762;2023-04-06T06:48:02;12.80;39.70
78647;DHT22;67961;43.460;3.762;2023-04-06T06:50:28;12.90;39.00
78647;DHT22;67961;43.460;3.762;2023-04-06T06:52:54;12.90;39.00
78647;DHT22;67961;43.460;3.762;2023-04-06T06:55:20;13.00;38.80
78647;DHT22;67961;43.460;3.762;2023-04-06T06:57:45;13.10;39.20
78647;DHT22;67961;43.460;3.762;2023-04-06T07:00:14;13.10;39.30
78647;DHT22;67961;43.460;3.762;2023-04-06T07:02:40;13.30;37.80
78647;DHT22;67961;43.460;3.762;2023-04-06T07:05:07;13.30;37.90
78647;DHT22;67961;43.460;3.762;2023-04-06T07:07:33;13.50;36.70
78647;DHT22;67961;43.460;3.762;2023-04-06T07:09:59;13.50;37.80
78647;DHT22;67961;43.460;3.762;2023-04-06T07:12:25;13.50;38.90
78647;DHT22;67961;43.460;3.762;2023-04-06T07:14:51;13.50;37.20
78647;DHT22;67961;43.460;3.762;2023-04-06T07:17:17;13.50;37.50
78647;DHT22;67961;43.460;3.762;2023-04-06T07:19:42;13.50;37.20
78647;DHT22;67961;43.460;3.762;2023-04-06T07:22:08;13.50;38.10
78647;DHT22;67961;43.460;3.762;2023-04-06T07:24:34;13.50;38.70
78647;DHT22;67961;43.460;3.762;2023-04-06T07:27:00;13.50;37.80
78647;DHT22;67961;43.460;3.762;2023-04-06T07:29:28;13.50;38.00
78647;DHT22;67961;43.460;3.762;2023-04-06T07:31:54;13.60;38.60
78647;DHT22;67961;43.460;3.762;2023-04-06T07:34:21;13.60;39.30
78647;DHT22;67961;43.460;3.762;2023-04-06T07:36:47;13.60;38.20
78647;DHT22;67961;43.460;3.762;2023-04-06T07:39:13;13.60;37.20
78647;DHT22;67961;43.460;3.762;2023-04-06T07:41:38;13.60;36.80
78647;DHT22;67961;43.460;3.762;2023-04-06T07:44:04;13.60;36.10
78647;DHT22;67961;43.460;3.762;2023-04-06T07:46:30;13.60;37.70
78647;DHT22;67961;43.460;3.762;2023-04-06T07:48:57;13.80;38.30
78647;DHT22;67961;43.460;3.762;2023-04-06T07:51:23;13.80;38.60
78647;DHT22;67961;43.460;3.762;2023-04-06T07:53:50;13.90;38.90
78647;DHT22;67961;43.460;3.762;2023-04-06T07:56:16;13.90;39.20
78647;DHT22;67961;43.460;3.762;2023-04-06T07:58:42;14.00;39.70
78647;DHT22;67961;43.460;3.762;2023-04-06T08:01:07;14.10;39.50
78647;DHT22;67961;43.460;3.762;2023-04-06T08:03:34;14.10;39.60
78647;DHT22;67961;43.460;3.762;2023-04-06T08:06:00;14.20;39.70
78647;DHT22;67961;43.460;3.762;2023-04-06T08:08:26;14.20;40.00
78647;DHT22;67961;43.460;3.762;2023-04-06T08:10:52;14.20;39.30
78647;DHT22;67961;43.460;3.762;2023-04-06T08:13:18;14.30;39.30
78647;DHT22;67961;43.460;3.762;2023-04-06T08:15:44;14.30;39.30
78647;DHT22;67961;43.460;3.762;2023-04-06T08:18:10;14.40;39.40
78647;DHT22;67961;43.460;3.762;2023-04-06T08:20:35;14.60;39.70
78647;DHT22;67961;43.460;3.762;2023-04-06T08:23:01;14.80;39.00
78647;DHT22;67961;43.460;3.762;2023-04-06T08:25:27;14.80;39.60
78647;DHT22;67961;43.460;3.762;2023-04-06T08:27:53;14.90;39.50
78647;DHT22;67961;43.460;3.762;2023-04-06T08:30:19;15.00;39.80
78647;DHT22;67961;43.460;3.762;2023-04-06T08:32:45;15.00;39.50
78647;DHT22;67961;43.460;3.762;2023-04-06T08:35:11;15.00;39.30
78647;DHT22;67961;43.460;3.762;2023-04-06T08:37:37;15.00;40.60
78647;DHT22;67961;43.460;3.762;2023-04-06T08:40:04;15.00;41.60
78647;DHT22;67961;43.460;3.762;2023-04-06T08:42:32;15.00;41.70
78647;DHT22;67961;43.460;3.762;2023-04-06T08:44:59;15.00;40.80
78647;DHT22;67961;43.460;3.762;2023-04-06T08:47:25;15.00;40.80
78647;DHT22;67961;43.460;3.762;2023-04-06T08:49:51;15.00;40.70
78647;DHT22;67961;43.460;3.762;2023-04-06T08:52:18;15.00;40.40
78647;DHT22;67961;43.460;3.762;2023-04-06T08:54:44;15.00;40.50
78647;DHT22;67961;43.460;3.762;2023-04-06T08:57:10;15.30;41.10
78647;DHT22;67961;43.460;3.762;2023-04-06T08:59:37;15.60;40.70
78647;DHT22;67961;43.460;3.762;2023-04-06T09:02:04;15.80;40.60
78647;DHT22;67961;43.460;3.762;2023-04-06T09:04:33;16.00;40.30
78647;DHT22;67961;43.460;3.762;2023-04-06T09:07:00;16.10;39.70
78647;DHT22;67961;43.460;3.762;2023-04-06T09:09:26;16.50;39.70
78647;DHT22;67961;43.460;3.762;2023-04-06T09:11:52;16.60;39.70
78647;DHT22;67961;43.460;3.762;2023-04-06T09:14:36;16.60;39.00
78647;DHT22;67961;43.460;3.762;2023-04-06T09:17:02;16.80;39.40
78647;DHT22;67961;43.460;3.762;2023-04-06T09:19:28;17.00;38.40
78647;DHT22;67961;43.460;3.762;2023-04-06T09:22:06;17.20;38.00
78647;DHT22;67961;43.460;3.762;2023-04-06T09:24:49;17.30;37.60
78647;DHT22;67961;43.460;3.762;2023-04-06T09:27:15;17.40;37.80
78647;DHT22;67961;43.460;3.762;2023-04-06T09:29:42;17.60;38.50
78647;DHT22;67961;43.460;3.762;2023-04-06T09:32:09;17.80;38.60
78647;DHT22;67961;43.460;3.762;2023-04-06T09:34:42;17.80;38.30
78647;DHT22;67961;43.460;3.762;2023-04-06T09:37:15;17.80;38.00
78647;DHT22;67961;43.460;3.762;2023-04-06T09:39:41;17.90;38.30
78647;DHT22;67961;43.460;3.762;2023-04-06T09:42:07;18.00;37.70
78647;DHT22;67961;43.460;3.762;2023-04-06T09:44:33;18.00;37.90
78647;DHT22;67961;43.460;3.762;2023-04-06T09:46:58;18.20;37.40
78647;DHT22;67961;43.460;3.762;2023-04-06T09:49:27;18.20;37.50
78647;DHT22;67961;43.460;3.762;2023-04-06T09:52:03;18.10;36.80
78647;DHT22;67961;43.460;3.762;2023-04-06T09:54:32;18.10;36.30
78647;DHT22;67961;43.460;3.762;2023-04-06T10:00:07;18.40;36.50
78647;DHT22;67961;43.460;3.762;2023-04-06T10:05:38;17.90;36.70
78647;DHT22;67961;43.460;3.762;2023-04-06T10:08:09;18.10;36.40
78647;DHT22;67961;43.460;3.762;2023-04-06T10:10:36;18.00;35.60
78647;DHT22;67961;43.460;3.762;2023-04-06T10:13:02;18.00;35.70
78647;DHT22;67961;43.460;3.762;2023-04-06T10:15:29;18.00;35.70
78647;DHT22;67961;43.460;3.762;2023-04-06T10:17:58;18.10;35.20
78647;DHT22;67961;43.460;3.762;2023-04-06T10:20:28;18.40;35.10
78647;DHT22;67961;43.460;3.762;2023-04-06T10:25:36;18.90;34.80
78647;DHT22;67961;43.460;3.762;2023-04-06T10:28:07;19.20;34.70
78647;DHT22;67961;43.460;3.762;2023-04-06T10:30:34;19.30;34.00
78647;DHT22;67961;43.460;3.762;2023-04-06T10:33:00;19.50;34.40
78647;DHT22;67961;43.460;3.762;2023-04-06T10:35:36;19.70;34.10
78647;DHT22;67961;43.460;3.762;2023-04-06T10:38:04;20.10;34.40
78647;DHT22;67961;43.460;3.762;2023-04-06T10:40:30;20.20;34.10
78647;DHT22;67961;43.460;3.762;2023-04-06T10:43:13;20.40;35.50
78647;DHT22;67961;43.460;3.762;2023-04-06T10:45:40;20.60;34.40
78647;DHT22;67961;43.460;3.762;2023-04-06T10:48:13;20.70;34.50
78647;DHT22;67961;43.460;3.762;2023-04-06T10:50:41;20.50;33.90
78647;DHT22;67961;43.460;3.762;2023-04-06T10:53:07;19.80;35.30
78647;DHT22;67961;43.460;3.762;2023-04-06T10:55:33;19.20;34.80
78647;DHT22;67961;43.460;3.762;2023-04-06T10:57:59;18.90;35.80
78647;DHT22;67961;43.460;3.762;2023-04-06T11:00:25;19.00;35.50
78647;DHT22;67961;43.460;3.762;2023-04-06T11:02:58;19.30;35.00
78647;DHT22;67961;43.460;3.762;2023-04-06T11:05:24;19.40;35.00
78647;DHT22;67961;43.460;3.762;2023-04-06T11:07:49;19.30;35.70
78647;DHT22;67961;43.460;3.762;2023-04-06T11:10:21;19.40;35.40
78647;DHT22;67961;43.460;3.762;2023-04-06T11:12:53;19.30;35.70
78647;DHT22;67961;43.460;3.762;2023-04-06T11:15:20;19.20;36.80
78647;DHT22;67961;43.460;3.762;2023-04-06T11:17:45;19.30;36.80
78647;DHT22;67961;43.460;3.762;2023-04-06T11:20:11;19.30;36.20
78647;DHT22;67961;43.460;3.762;2023-04-06T11:22:48;19.40;37.20
78647;DHT22;67961;43.460;3.762;2023-04-06T11:25:14;19.50;37.70
78647;DHT22;67961;43.460;3.762;2023-04-06T11:27:42;19.50;38.10
78647;DHT22;67961;43.460;3.762;2023-04-06T11:30:09;19.40;36.50
78647;DHT22;67961;43.460;3.762;2023-04-06T11:32:42;19.20;36.90
78647;DHT22;67961;43.460;3.762;2023-04-06T11:35:20;18.90;36.90
78647;DHT22;67961;43.460;3.762;2023-04-06T11:37:46;18.90;38.00
78647;DHT22;67961;43.460;3.762;2023-04-06T11:40:11;19.00;37.70
78647;DHT22;67961;43.460;3.762;2023-04-06T11:42:37;19.30;38.20
78647;DHT22;67961;43.460;3.762;2023-04-06T11:45:03;19.30;37.80
78647;DHT22;67961;43.460;3.762;2023-04-06T11:47:32;19.20;38.10
78647;DHT22;67961;43.460;3.762;2023-04-06T11:50:09;19.00;38.30
78647;DHT22;67961;43.460;3.762;2023-04-06T11:52:35;18.90;39.10
78647;DHT22;67961;43.460;3.762;2023-04-06T11:55:11;19.00;39.00
78647;DHT22;67961;43.460;3.762;2023-04-06T11:57:38;19.20;39.40
78647;DHT22;67961;43.460;3.762;2023-04-06T12:00:07;19.20;39.00
78647;DHT22;67961;43.460;3.762;2023-04-06T12:02:34;18.90;39.00
78647;DHT22;67961;43.460;3.762;2023-04-06T12:04:59;18.60;39.50
78647;DHT22;67961;43.460;3.762;2023-04-06T12:07:25;18.50;39.60
78647;DHT22;67961;43.460;3.762;2023-04-06T12:09:51;18.50;39.20
78647;DHT22;67961;43.460;3.762;2023-04-06T12:12:17;18.40;40.20
78647;DHT22;67961;43.460;3.762;2023-04-06T12:14:42;18.30;41.50
78647;DHT22;67961;43.460;3.762;2023-04-06T12:17:08;18.40;41.80
78647;DHT22;67961;43.460;3.762;2023-04-06T12:19:34;18.50;41.70
78647;DHT22;67961;43.460;3.762;2023-04-06T12:21:59;18.70;41.10
78647;DHT22;67961;43.460;3.762;2023-04-06T12:24:25;19.00;41.40
78647;DHT22;67961;43.460;3.762;2023-04-06T12:26:51;18.90;39.80
78647;DHT22;67961;43.460;3.762;2023-04-06T12:29:16;18.90;40.10
78647;DHT22;67961;43.460;3.762;2023-04-06T12:31:42;18.60;40.10
78647;DHT22;67961;43.460;3.762;2023-04-06T12:34:09;18.50;40.60
78647;DHT22;67961;43.460;3.762;2023-04-06T12:36:37;18.40;40.80
78647;DHT22;67961;43.460;3.762;2023-04-06T12:39:04;18.40;40.10
78647;DHT22;67961;43.460;3.762;2023-04-06T12:41:30;18.10;41.10
78647;DHT22;67961;43.460;3.762;2023-04-06T12:43:56;17.90;40.90
78647;DHT22;67961;43.460;3.762;2023-04-06T12:46:23;17.60;41.70
78647;DHT22;67961;43.460;3.762;2023-04-06T12:48:49;17.50;42.70
78647;DHT22;67961;43.460;3.762;2023-04-06T12:51:18;17.40;43.40
78647;DHT22;67961;43.460;3.762;2023-04-06T12:53:45;17.50;43.00
78647;DHT22;67961;43.460;3.762;2023-04-06T12:56:16;17.40;42.60
78647;DHT22;67961;43.460;3.762;2023-04-06T12:58:46;17.50;42.70
78647;DHT22;67961;43.460;3.762;2023-04-06T13:01:12;17.50;42.80
78647;DHT22;67961;43.460;3.762;2023-04-06T13:03:38;17.40;42.70
78647;DHT22;67961;43.460;3.762;2023-04-06T13:06:04;17.40;43.20
78647;DHT22;67961;43.460;3.762;2023-04-06T13:08:30;17.30;43.90
78647;DHT22;67961;43.460;3.762;2023-04-06T13:10:56;17.30;45.30
78647;DHT22;67961;43.460;3.762;2023-04-06T13:13:29;17.40;46.00
78647;DHT22;67961;43.460;3.762;2023-04-06T13:16:02;17.50;46.80
78647;DHT22;67961;43.460;3.762;2023-04-06T13:18:29;17.50;47.60
78647;DHT22;67961;43.460;3.762;2023-04-06T13:20:56;17.40;48.00
78647;DHT22;67961;43.460;3.762;2023-04-06T13:23:25;17.10;48.60
78647;DHT22;67961;43.460;3.762;2023-04-06T13:25:58;17.00;48.70
78647;DHT22;67961;43.460;3.762;2023-04-06T13:28:25;17.00;49.10
78647;DHT22;67961;43.460;3.762;2023-04-06T13:30:51;16.90;48.50
78647;DHT22;67961;43.460;3.762;2023-04-06T13:33:17;16.80;47.90
78647;DHT22;67961;43.460;3.762;2023-04-06T13:35:46;16.70;48.30
78647;DHT22;67961;43.460;3.762;2023-04-06T13:38:13;16.60;48.20
78647;DHT22;67961;43.460;3.762;2023-04-06T13:40:39;16.50;47.50
78647;DHT22;67961;43.460;3.762;2023-04-06T13:43:05;16.40;48.10
78647;DHT22;67961;43.460;3.762;2023-04-06T13:45:31;16.40;48.60
78647;DHT22;67961;43.460;3.762;2023-04-06T13:47:57;16.40;48.60
78647;DHT22;67961;43.460;3.762;2023-04-06T13:50:25;16.20;47.30
78647;DHT22;67961;43.460;3.762;2023-04-06T13:52:50;16.20;48.20
78647;DHT22;67961;43.460;3.762;2023-04-06T13:55:16;16.20;48.30
78647;DHT22;67961;43.460;3.762;2023-04-06T13:57:42;16.10;48.50
78647;DHT22;67961;43.460;3.762;2023-04-06T14:00:08;16.00;48.20
78647;DHT22;67961;43.460;3.762;2023-04-06T14:02:34;16.00;49.00
78647;DHT22;67961;43.460;3.762;2023-04-06T14:05:00;16.20;48.80
78647;DHT22;67961;43.460;3.762;2023-04-06T14:07:26;16.40;48.20
78647;DHT22;67961;43.460;3.762;2023-04-06T14:09:51;16.40;47.90
78647;DHT22;67961;43.460;3.762;2023-04-06T14:12:17;16.30;48.30
78647;DHT22;67961;43.460;3.762;2023-04-06T14:14:43;16.10;48.70
78647;DHT22;67961;43.460;3.762;2023-04-06T14:17:08;16.10;49.20
78647;DHT22;67961;43.460;3.762;2023-04-06T14:19:34;16.00;49.70
78647;DHT22;67961;43.460;3.762;2023-04-06T14:22:01;16.10;49.70
78647;DHT22;67961;43.460;3.762;2023-04-06T14:24:27;16.20;49.90
78647;DHT22;67961;43.460;3.762;2023-04-06T14:26:53;16.20;50.10
78647;DHT22;67961;43.460;3.762;2023-04-06T14:29:18;16.10;50.20
78647;DHT22;67961;43.460;3.762;2023-04-06T14:31:47;16.00;50.70
78647;DHT22;67961;43.460;3.762;2023-04-06T14:34:13;15.80;51.10
78647;DHT22;67961;43.460;3.762;2023-04-06T14:36:38;15.80;51.00
78647;DHT22;67961;43.460;3.762;2023-04-06T14:39:05;15.80;50.80
78647;DHT22;67961;43.460;3.762;2023-04-06T14:41:32;15.80;51.40
78647;DHT22;67961;43.460;3.762;2023-04-06T14:43:58;15.90;51.70
78647;DHT22;67961;43.460;3.762;2023-04-06T14:46:24;16.00;51.50
78647;DHT22;67961;43.460;3.762;2023-04-06T14:48:49;16.00;51.00
78647;DHT22;67961;43.460;3.762;2023-04-06T14:51:16;15.90;50.80
78647;DHT22;67961;43.460;3.762;2023-04-06T14:53:42;15.70;51.40
78647;DHT22;67961;43.460;3.762;2023-04-06T14:56:08;15.60;51.40
78647;DHT22;67961;43.460;3.762;2023-04-06T14:58:33;15.60;51.50
78647;DHT22;67961;43.460;3.762;2023-04-06T15:01:00;15.70;51.70
78647;DHT22;67961;43.460;3.762;2023-04-06T15:03:27;15.60;51.60
78647;DHT22;67961;43.460;3.762;2023-04-06T15:05:53;15.60;51.90
78647;DHT22;67961;43.460;3.762;2023-04-06T15:08:19;15.70;51.80
78647;DHT22;67961;43.460;3.762;2023-04-06T15:10:47;15.60;51.90
78647;DHT22;67961;43.460;3.762;2023-04-06T15:13:12;15.50;51.50
78647;DHT22;67961;43.460;3.762;2023-04-06T15:15:38;15.40;52.00
78647;DHT22;67961;43.460;3.762;2023-04-06T15:18:04;15.20;52.60
78647;DHT22;67961;43.460;3.762;2023-04-06T15:20:30;15.20;53.10
78647;DHT22;67961;43.460;3.762;2023-04-06T15:22:56;15.20;53.10
78647;DHT22;67961;43.460;3.762;2023-04-06T15:25:22;15.30;52.70
78647;DHT22;67961;43.460;3.762;2023-04-06T15:27:50;15.30;52.50
78647;DHT22;67961;43.460;3.762;2023-04-06T15:30:16;15.40;52.90
78647;DHT22;67961;43.460;3.762;2023-04-06T15:32:55;15.50;52.80
78647;DHT22;67961;43.460;3.762;2023-04-06T15:35:21;15.50;52.60
78647;DHT22;67961;43.460;3.762;2023-04-06T15:37:47;15.40;52.60